Time;durP1;ratioP1;P1;durP2;ratioP2;P2;SDS_P1;SDS_P2;PMS_P1;PMS_P2;Temp;Humidity;BMP_temperature;BMP_pressure;BME280_temperature;BME280_humidity;BME280_pressure;Samples;Min_cycle;Max_cycle;Signal;HPM_P1;HPM_P2
2024/02/14 00:01:48;;;;;;;5.10;3.93;;;4.10;99.90;;;;;;4987025;28;20190;-70
2024/02/14 00:04:14;;;;;;;11.87;3.83;;;4.10;99.90;;;;;;4977143;28;20965;-69
2024/02/14 00:06:40;;;;;;;5.53;4.07;;;4.20;99.90;;;;;;4976964;28;20274;-70
2024/02/14 00:09:06;;;;;;;8.87;4.57;;;4.20;99.90;;;;;;4977270;28;20171;-70
2024/02/14 00:11:32;;;;;;;4.87;4.00;;;4.30;99.90;;;;;;4978181;28;20168;-68
2024/02/14 00:13:58;;;;;;;4.90;3.93;;;4.40;99.90;;;;;;4977055;28;20515;-70
2024/02/14 00:16:24;;;;;;;5.93;4.10;;;4.40;99.90;;;;;;4976700;28;20448;-69
2024/02/14 00:18:50;;;;;;;5.00;3.60;;;4.50;99.90;;;;;;4976884;28;20434;-70
2024/02/14 00:21:16;;;;;;;5.00;4.60;;;4.50;99.90;;;;;;4976912;28;20538;-70
2024/02/14 00:23:42;;;;;;;6.93;4.90;;;4.50;99.90;;;;;;4977103;28;20465;-69
2024/02/14 00:26:07;;;;;;;6.43;4.20;;;4.60;99.90;;;;;;4990730;28;20279;-70
2024/02/14 00:28:33;;;;;;;8.73;4.13;;;4.60;99.90;;;;;;4976613;28;20176;-70
2024/02/14 00:30:59;;;;;;;5.17;4.10;;;4.80;99.90;;;;;;4977733;28;20559;-70
2024/02/14 00:33:24;;;;;;;5.47;4.60;;;4.80;99.90;;;;;;4976643;28;20575;-69
2024/02/14 00:35:50;;;;;;;5.63;3.67;;;4.90;99.90;;;;;;4976008;28;20215;-69
2024/02/14 00:38:15;;;;;;;8.17;4.43;;;5.00;99.90;;;;;;4976297;28;20549;-70
2024/02/14 00:40:41;;;;;;;6.40;4.90;;;5.00;99.90;;;;;;4960299;28;20187;-69
2024/02/14 00:43:06;;;;;;;5.90;3.67;;;5.10;99.90;;;;;;4995028;28;20215;-69
2024/02/14 00:45:32;;;;;;;4.93;3.77;;;5.20;99.90;;;;;;4995781;28;20187;-70
2024/02/14 00:47:57;;;;;;;6.90;3.93;;;5.20;99.90;;;;;;4995568;28;20259;-69
2024/02/14 00:50:23;;;;;;;4.37;3.60;;;5.20;99.90;;;;;;4995840;28;20176;-70
2024/02/14 00:52:48;;;;;;;5.10;3.90;;;5.30;99.90;;;;;;4995577;28;20195;-69
2024/02/14 00:55:14;;;;;;;5.67;4.60;;;5.30;99.90;;;;;;4994342;28;20692;-69
2024/02/14 00:57:40;;;;;;;7.50;3.80;;;5.40;99.90;;;;;;4995423;28;20172;-69
2024/02/14 01:00:06;;;;;;;8.40;4.67;;;5.40;99.90;;;;;;4995853;28;20160;-69
2024/02/14 01:02:32;;;;;;;4.80;4.17;;;5.30;99.90;;;;;;4995549;28;20837;-69
2024/02/14 01:04:58;;;;;;;8.67;4.40;;;5.30;99.90;;;;;;4995493;28;20497;-70
2024/02/14 01:07:23;;;;;;;7.23;4.00;;;5.30;99.90;;;;;;4977842;28;20171;-69
2024/02/14 01:09:49;;;;;;;6.00;4.33;;;5.20;99.90;;;;;;4993874;28;20186;-69
2024/02/14 01:12:15;;;;;;;10.13;4.47;;;5.30;99.90;;;;;;4994371;28;20701;-69
2024/02/14 01:14:41;;;;;;;7.13;5.63;;;5.20;99.90;;;;;;4995291;28;20473;-70
2024/02/14 01:17:08;;;;;;;9.70;4.80;;;5.20;99.90;;;;;;4995082;28;20187;-70
2024/02/14 01:19:33;;;;;;;7.97;5.57;;;5.20;99.90;;;;;;4995328;28;20871;-69
2024/02/14 01:21:59;;;;;;;7.30;4.23;;;5.20;99.90;;;;;;4995244;28;20446;-69
2024/02/14 01:24:26;;;;;;;7.00;4.20;;;5.10;99.90;;;;;;4993649;28;20295;-69
2024/02/14 01:26:54;;;;;;;12.07;4.50;;;5.20;99.90;;;;;;4992333;28;20705;-68
2024/02/14 01:29:19;;;;;;;5.03;4.50;;;5.10;99.90;;;;;;4976884;28;20542;-69
2024/02/14 01:31:45;;;;;;;7.50;5.13;;;5.20;99.90;;;;;;4975592;28;20981;-69
2024/02/14 01:34:10;;;;;;;7.23;4.43;;;5.20;99.90;;;;;;4975518;28;20214;-69
2024/02/14 01:36:38;;;;;;;7.60;5.07;;;5.20;99.90;;;;;;5009586;23;20228;-67
2024/02/14 01:39:06;;;;;;;7.30;4.50;;;5.20;99.90;;;;;;4988015;28;20186;-67
2024/02/14 01:41:32;;;;;;;7.80;4.23;;;5.20;99.90;;;;;;4994949;28;20474;-67
2024/02/14 01:43:59;;;;;;;4.87;4.13;;;5.30;99.90;;;;;;4994837;28;20466;-67
2024/02/14 01:46:24;;;;;;;6.47;4.00;;;5.30;99.90;;;;;;4994597;28;20809;-67
2024/02/14 01:48:50;;;;;;;4.27;3.80;;;5.30;99.90;;;;;;4994757;28;20423;-67
2024/02/14 01:51:17;;;;;;;6.97;4.57;;;5.30;99.90;;;;;;4994278;28;20199;-67
2024/02/14 01:53:43;;;;;;;5.80;3.70;;;5.30;99.90;;;;;;4974088;28;20199;-67
2024/02/14 01:56:08;;;;;;;4.90;3.73;;;5.40;99.90;;;;;;4975209;28;20538;-67
2024/02/14 01:58:34;;;;;;;4.73;3.97;;;5.40;99.90;;;;;;4974969;28;20180;-67
2024/02/14 02:01:00;;;;;;;7.73;4.07;;;5.40;99.90;;;;;;4975143;28;20172;-67
2024/02/14 02:03:26;;;;;;;4.60;3.50;;;5.40;99.90;;;;;;4975034;28;20462;-67
2024/02/14 02:05:53;;;;;;;5.63;3.60;;;5.40;99.90;;;;;;4974912;28;20278;-67
2024/02/14 02:08:19;;;;;;;5.00;4.07;;;5.40;99.90;;;;;;4973085;28;20485;-67
2024/02/14 02:10:45;;;;;;;7.37;3.90;;;5.40;99.90;;;;;;4975002;28;20450;-67
2024/02/14 02:13:10;;;;;;;5.00;3.67;;;5.40;99.90;;;;;;4974862;28;20490;-67
2024/02/14 02:15:37;;;;;;;9.03;3.80;;;5.40;99.90;;;;;;4974845;28;20200;-67
2024/02/14 02:18:05;;;;;;;4.03;3.63;;;5.40;99.90;;;;;;4974608;28;20176;-67
2024/02/14 02:20:32;;;;;;;4.40;3.80;;;5.40;99.90;;;;;;4974182;28;20435;-67
2024/02/14 02:22:58;;;;;;;3.47;3.20;;;5.40;99.90;;;;;;4973315;28;20431;-67
2024/02/14 02:25:26;;;;;;;6.13;4.10;;;5.40;99.90;;;;;;4974641;28;20863;-67
2024/02/14 02:27:58;;;;;;;5.00;3.60;;;5.50;99.90;;;;;;4974340;28;20212;-67
2024/02/14 02:30:24;;;;;;;6.73;3.53;;;5.50;99.90;;;;;;4974596;28;20467;-67
2024/02/14 02:32:52;;;;;;;6.00;3.90;;;5.50;99.90;;;;;;4974579;28;20423;-67
2024/02/14 02:35:21;;;;;;;4.60;4.17;;;5.50;99.90;;;;;;4974254;28;20812;-67
2024/02/14 02:37:50;;;;;;;9.10;4.97;;;5.50;99.90;;;;;;4972569;28;20858;-67
2024/02/14 02:40:16;;;;;;;5.20;4.67;;;5.50;99.90;;;;;;4974414;28;20459;-67
2024/02/14 02:42:43;;;;;;;10.37;4.77;;;5.50;99.90;;;;;;4967421;28;20930;-67
2024/02/14 02:45:09;;;;;;;4.80;3.77;;;5.40;99.90;;;;;;4955007;29;20456;-67
2024/02/14 02:47:34;;;;;;;6.03;4.50;;;5.40;99.90;;;;;;4954669;29;20797;-67
2024/02/14 02:50:02;;;;;;;5.37;4.63;;;5.30;99.90;;;;;;4956028;28;20166;-67
2024/02/14 02:52:31;;;;;;;6.13;3.97;;;5.30;99.90;;;;;;4954825;29;20177;-67
2024/02/14 02:54:56;;;;;;;5.27;4.83;;;5.30;99.90;;;;;;4954757;29;20432;-67
2024/02/14 02:57:22;;;;;;;8.17;4.50;;;5.30;99.90;;;;;;4954509;29;20771;-67
2024/02/14 02:59:48;;;;;;;7.87;3.80;;;5.30;99.90;;;;;;4954669;29;20177;-67
2024/02/14 03:02:18;;;;;;;6.77;4.10;;;5.30;99.90;;;;;;4954728;29;20169;-67
2024/02/14 03:04:45;;;;;;;9.63;4.70;;;5.30;99.90;;;;;;4954473;29;20495;-67
2024/02/14 03:07:10;;;;;;;5.40;4.23;;;5.30;99.90;;;;;;4954956;28;20454;-67
2024/02/14 03:09:36;;;;;;;7.60;4.43;;;5.30;99.90;;;;;;4954759;29;20424;-67
2024/02/14 03:12:05;;;;;;;6.67;4.53;;;5.30;99.90;;;;;;4954738;29;20596;-67
2024/02/14 03:14:33;;;;;;;4.80;4.20;;;5.30;99.90;;;;;;4954495;29;20169;-67
2024/02/14 03:17:08;;;;;;;5.20;3.07;;;5.40;99.90;;;;;;4954189;29;20444;-67
2024/02/14 03:19:38;;;;;;;5.13;4.00;;;5.40;99.90;;;;;;4955539;28;20941;-67
2024/02/14 03:22:05;;;;;;;5.87;4.57;;;5.40;99.90;;;;;;4954375;29;20803;-67
2024/02/14 03:24:31;;;;;;;5.97;4.83;;;5.40;99.90;;;;;;4954293;29;20460;-67
2024/02/14 03:26:56;;;;;;;4.17;3.77;;;5.50;99.90;;;;;;4954004;29;20444;-67
2024/02/14 03:29:22;;;;;;;4.43;3.73;;;5.50;99.90;;;;;;4954349;29;20259;-67
2024/02/14 03:31:48;;;;;;;7.10;4.33;;;5.50;99.90;;;;;;4954265;29;20549;-67
2024/02/14 03:34:14;;;;;;;4.30;3.90;;;5.40;99.90;;;;;;4953757;28;20177;-67
2024/02/14 03:36:39;;;;;;;5.80;5.20;;;5.40;99.90;;;;;;4954764;28;20638;-67
2024/02/14 03:39:06;;;;;;;4.23;3.80;;;5.40;99.90;;;;;;4954239;29;20552;-67
2024/02/14 03:41:32;;;;;;;4.67;4.17;;;5.40;99.90;;;;;;4954446;29;20199;-67
2024/02/14 03:44:00;;;;;;;5.13;4.03;;;5.30;99.90;;;;;;4954059;29;20547;-67
2024/02/14 03:46:26;;;;;;;4.70;4.27;;;5.30;99.90;;;;;;4953744;29;20437;-67
2024/02/14 03:48:52;;;;;;;5.10;4.20;;;5.30;99.90;;;;;;4958269;28;20424;-67
2024/02/14 03:51:19;;;;;;;7.43;5.17;;;5.30;99.90;;;;;;4972985;28;20423;-67
2024/02/14 03:53:45;;;;;;;10.83;4.40;;;5.30;99.90;;;;;;4937033;29;20428;-67
2024/02/14 03:56:12;;;;;;;6.80;5.13;;;5.30;99.90;;;;;;4953935;29;20444;-67
2024/02/14 03:58:38;;;;;;;6.23;4.20;;;5.40;99.90;;;;;;4936431;29;20555;-67
2024/02/14 04:01:04;;;;;;;6.50;4.53;;;5.40;99.90;;;;;;4953899;29;20424;-67
2024/02/14 04:03:30;;;;;;;9.37;4.77;;;5.50;99.90;;;;;;4954070;28;20460;-68
2024/02/14 04:05:56;;;;;;;8.13;5.30;;;5.50;99.90;;;;;;4966763;28;20443;-67
2024/02/14 04:08:21;;;;;;;8.00;4.87;;;5.50;99.90;;;;;;4972817;28;20235;-67
2024/02/14 04:10:49;;;;;;;7.63;4.83;;;5.50;99.90;;;;;;4973166;28;20176;-67
2024/02/14 04:13:15;;;;;;;4.57;3.93;;;5.50;99.90;;;;;;4973100;28;20848;-67
2024/02/14 04:15:42;;;;;;;5.70;4.23;;;5.50;99.90;;;;;;4973025;28;20467;-67
2024/02/14 04:18:08;;;;;;;3.80;3.50;;;5.30;99.90;;;;;;4972019;28;20180;-67
2024/02/14 04:20:34;;;;;;;5.83;3.13;;;5.30;99.90;;;;;;4972964;28;20427;-67
2024/02/14 04:22:59;;;;;;;4.30;3.20;;;5.20;99.90;;;;;;4972955;28;20222;-67
2024/02/14 04:25:25;;;;;;;4.60;3.27;;;5.20;99.90;;;;;;4973116;28;20446;-67
2024/02/14 04:27:51;;;;;;;4.23;3.77;;;5.20;99.90;;;;;;4972717;28;20164;-67
2024/02/14 04:30:16;;;;;;;4.13;3.43;;;5.20;99.90;;;;;;4972815;28;20188;-67
2024/02/14 04:32:43;;;;;;;5.13;3.43;;;5.20;99.90;;;;;;4972727;28;20165;-67
2024/02/14 04:35:09;;;;;;;6.60;3.60;;;5.20;99.90;;;;;;4971571;28;20246;-67
2024/02/14 04:37:34;;;;;;;5.13;4.63;;;5.20;99.90;;;;;;4972669;28;20423;-67
2024/02/14 04:40:00;;;;;;;4.47;3.70;;;5.20;99.90;;;;;;4973017;28;20750;-67
2024/02/14 04:42:25;;;;;;;7.70;3.80;;;5.20;99.90;;;;;;4972835;28;20184;-67
2024/02/14 04:44:51;;;;;;;6.07;3.83;;;5.20;99.90;;;;;;4972704;28;20284;-67
2024/02/14 04:47:16;;;;;;;3.70;2.70;;;5.20;99.90;;;;;;4973881;28;20254;-67
2024/02/14 04:49:42;;;;;;;5.93;3.70;;;5.20;99.90;;;;;;4976375;28;20711;-67
2024/02/14 04:52:08;;;;;;;4.40;4.00;;;5.30;99.90;;;;;;4976442;28;20660;-67
2024/02/14 04:54:33;;;;;;;3.90;3.50;;;5.30;99.90;;;;;;4959204;28;20176;-67
2024/02/14 04:56:59;;;;;;;5.53;4.40;;;5.30;99.90;;;;;;4975939;28;20940;-67
2024/02/14 04:59:25;;;;;;;5.10;3.80;;;5.30;99.90;;;;;;4976211;28;20700;-67
2024/02/14 05:01:51;;;;;;;5.10;4.30;;;5.40;99.90;;;;;;4976223;28;20176;-67
2024/02/14 05:04:17;;;;;;;5.97;4.80;;;5.40;99.90;;;;;;4974488;28;20307;-67
2024/02/14 05:06:43;;;;;;;4.83;3.40;;;5.50;99.90;;;;;;4975805;28;20578;-67
2024/02/14 05:09:10;;;;;;;4.03;3.63;;;5.50;99.90;;;;;;4976140;28;20168;-67
2024/02/14 05:11:36;;;;;;;3.80;3.50;;;5.50;99.90;;;;;;4975994;28;20533;-67
2024/02/14 05:14:03;;;;;;;4.23;3.83;;;5.60;99.90;;;;;;4975981;28;20424;-67
2024/02/14 05:16:29;;;;;;;5.57;3.30;;;5.60;99.90;;;;;;4974862;28;20447;-67
2024/02/14 05:18:54;;;;;;;4.87;3.37;;;5.60;99.90;;;;;;4975865;28;20765;-67
2024/02/14 05:21:21;;;;;;;3.77;3.40;;;5.50;99.90;;;;;;4975930;28;20286;-67
2024/02/14 05:23:47;;;;;;;6.30;4.50;;;5.50;99.90;;;;;;4975805;28;20279;-67
2024/02/14 05:26:12;;;;;;;4.37;3.97;;;5.50;99.90;;;;;;4975623;28;20483;-67
2024/02/14 05:28:38;;;;;;;5.87;4.20;;;5.60;99.90;;;;;;4975334;28;20180;-67
2024/02/14 05:31:03;;;;;;;4.40;3.87;;;5.60;99.90;;;;;;4975724;28;20179;-67
2024/02/14 05:33:29;;;;;;;4.20;3.80;;;5.60;99.90;;;;;;4973986;28;20188;-67
2024/02/14 05:35:54;;;;;;;4.80;4.23;;;5.60;99.90;;;;;;4975386;28;20306;-67
2024/02/14 05:38:20;;;;;;;4.30;3.50;;;5.60;99.90;;;;;;4975403;28;20172;-67
2024/02/14 05:40:46;;;;;;;6.13;3.50;;;5.60;99.90;;;;;;4975655;28;20183;-67
2024/02/14 05:43:12;;;;;;;4.20;3.80;;;5.70;99.90;;;;;;4975340;28;20172;-67
2024/02/14 05:45:38;;;;;;;5.30;3.40;;;5.70;99.90;;;;;;4957356;28;20995;-67
2024/02/14 05:48:04;;;;;;;4.07;3.20;;;5.70;99.90;;;;;;4969047;28;20587;-67
2024/02/14 05:50:29;;;;;;;3.63;3.13;;;5.60;99.90;;;;;;4956017;29;20173;-67
2024/02/14 05:52:57;;;;;;;3.30;2.97;;;5.60;99.90;;;;;;4956043;29;20428;-67
2024/02/14 05:55:22;;;;;;;6.10;3.97;;;5.60;99.90;;;;;;4955884;29;20192;-67
2024/02/14 05:57:48;;;;;;;5.00;3.53;;;5.60;99.90;;;;;;4955089;28;20455;-67
2024/02/14 06:00:14;;;;;;;6.83;3.80;;;5.60;99.90;;;;;;4938819;29;20180;-67
2024/02/14 06:02:40;;;;;;;3.80;3.40;;;5.60;99.90;;;;;;4956924;28;20682;-67
2024/02/14 06:05:09;;;;;;;6.20;4.00;;;5.60;99.90;;;;;;4955778;29;20551;-67
2024/02/14 06:07:36;;;;;;;4.90;4.17;;;5.60;99.90;;;;;;4955498;29;20165;-67
2024/02/14 06:10:01;;;;;;;5.53;3.70;;;5.60;99.90;;;;;;4955743;29;20425;-67
2024/02/14 06:12:27;;;;;;;5.70;3.63;;;5.60;99.90;;;;;;4955601;29;20484;-67
2024/02/14 06:14:52;;;;;;;5.47;4.03;;;5.60;99.90;;;;;;4958395;28;20184;-67
2024/02/14 06:17:18;;;;;;;4.03;3.60;;;5.60;99.90;;;;;;4974484;28;20570;-67
2024/02/14 06:19:43;;;;;;;7.33;4.00;;;5.60;99.90;;;;;;4957501;28;20172;-67
2024/02/14 06:22:10;;;;;;;3.27;2.97;;;5.60;99.90;;;;;;4974809;28;20188;-67
2024/02/14 06:24:36;;;;;;;3.20;2.90;;;5.60;99.90;;;;;;4974632;28;20200;-67
2024/02/14 06:27:01;;;;;;;4.67;3.20;;;5.60;99.90;;;;;;4974247;28;20518;-68
2024/02/14 06:29:27;;;;;;;3.13;2.83;;;5.60;99.90;;;;;;4974731;28;20168;-67
2024/02/14 06:31:52;;;;;;;2.27;2.03;;;5.70;99.90;;;;;;4972989;28;20176;-67
2024/02/14 06:34:19;;;;;;;2.73;2.53;;;5.80;99.90;;;;;;4974462;28;20186;-67
2024/02/14 06:36:46;;;;;;;4.03;2.73;;;5.90;99.90;;;;;;4974272;28;20204;-67
2024/02/14 06:39:11;;;;;;;2.93;2.70;;;6.00;99.90;;;;;;4974380;28;20459;-67
2024/02/14 06:41:37;;;;;;;3.40;3.00;;;6.10;99.90;;;;;;4974471;28;20458;-67
2024/02/14 06:44:04;;;;;;;5.70;2.30;;;6.10;99.90;;;;;;4973595;28;20203;-67
2024/02/14 06:46:29;;;;;;;3.17;2.87;;;6.20;99.90;;;;;;4963074;28;20205;-67
2024/02/14 06:48:56;;;;;;;9.20;5.80;;;6.20;99.90;;;;;;4954931;29;20778;-67
2024/02/14 06:51:22;;;;;;;2.83;2.60;;;6.20;99.90;;;;;;4954906;29;20201;-67
2024/02/14 06:53:48;;;;;;;4.17;3.47;;;6.30;99.90;;;;;;4962428;28;20436;-67
2024/02/14 06:56:14;;;;;;;2.33;2.13;;;6.30;99.90;;;;;;4963984;28;20220;-67
2024/02/14 06:58:40;;;;;;;4.00;2.93;;;6.30;99.90;;;;;;4963054;28;20452;-67
2024/02/14 07:01:05;;;;;;;3.90;2.67;;;6.40;99.90;;;;;;4957680;28;20180;-67
2024/02/14 07:03:31;;;;;;;4.33;1.87;;;6.40;99.90;;;;;;4954560;29;20219;-67
2024/02/14 07:05:57;;;;;;;4.30;2.13;;;6.50;99.90;;;;;;4954443;29;20188;-67
2024/02/14 07:08:23;;;;;;;3.00;2.43;;;6.50;99.90;;;;;;4936982;29;20437;-67
2024/02/14 07:10:49;;;;;;;3.00;2.80;;;6.50;99.90;;;;;;4953287;28;21771;-67
2024/02/14 07:13:14;;;;;;;3.10;2.20;;;6.50;99.90;;;;;;4964164;28;20510;-67
2024/02/14 07:15:40;;;;;;;4.30;2.60;;;6.60;99.90;;;;;;4971978;28;20211;-67
2024/02/14 07:18:08;;;;;;;4.70;2.80;;;6.60;99.90;;;;;;4973411;28;20183;-67
2024/02/14 07:20:33;;;;;;;3.10;2.83;;;6.70;99.90;;;;;;4973582;28;20260;-67
2024/02/14 07:22:59;;;;;;;4.57;2.80;;;6.80;99.90;;;;;;4973382;28;20498;-67
2024/02/14 07:25:24;;;;;;;3.60;2.40;;;6.90;99.90;;;;;;4973425;28;20192;-67
2024/02/14 07:27:50;;;;;;;8.17;2.90;;;7.00;99.90;;;;;;4973169;28;20176;-67
2024/02/14 07:30:18;;;;;;;4.07;2.43;;;7.10;99.90;;;;;;4971928;28;20252;-67
2024/02/14 07:32:45;;;;;;;5.10;2.80;;;7.20;99.90;;;;;;4973466;28;20167;-67
2024/02/14 07:35:13;;;;;;;3.90;2.77;;;7.20;99.90;;;;;;4956016;28;20961;-67
2024/02/14 07:37:38;;;;;;;3.50;2.10;;;7.40;99.90;;;;;;4997591;23;20491;-69
2024/02/14 07:40:05;;;;;;;3.93;3.07;;;7.50;99.90;;;;;;4990640;28;20501;-69
2024/02/14 07:42:31;;;;;;;3.60;2.63;;;7.50;99.90;;;;;;4992805;28;20167;-69
2024/02/14 07:44:57;;;;;;;2.97;2.10;;;7.60;99.90;;;;;;4981074;28;20467;-69
2024/02/14 07:47:22;;;;;;;5.47;3.00;;;7.70;99.90;;;;;;4972983;28;20959;-69
2024/02/14 07:49:48;;;;;;;8.30;2.40;;;7.70;99.90;;;;;;4973336;28;20581;-69
2024/02/14 07:52:13;;;;;;;4.63;2.70;;;7.80;99.90;;;;;;4973378;28;20200;-70
2024/02/14 07:54:39;;;;;;;2.97;2.10;;;7.90;99.90;;;;;;4973371;28;20204;-70
2024/02/14 07:57:04;;;;;;;2.70;1.63;;;8.10;99.90;;;;;;4973254;28;20200;-70
2024/02/14 07:59:30;;;;;;;3.13;2.07;;;8.30;99.90;;;;;;4974393;28;20185;-69
2024/02/14 08:01:57;;;;;;;4.30;2.27;;;8.40;99.90;;;;;;4984765;28;20664;-69
2024/02/14 08:04:23;;;;;;;6.43;2.30;;;8.60;99.90;;;;;;4992495;28;20187;-69
2024/02/14 08:06:49;;;;;;;2.90;1.50;;;8.70;99.90;;;;;;4992272;28;20445;-69
2024/02/14 08:09:14;;;;;;;1.87;1.67;;;8.70;99.90;;;;;;4992502;28;20172;-69
2024/02/14 08:11:40;;;;;;;2.40;1.43;;;8.70;99.90;;;;;;4992677;28;20178;-69
2024/02/14 08:14:06;;;;;;;2.50;1.93;;;8.70;99.90;;;;;;4989248;28;20205;-70
2024/02/14 08:16:32;;;;;;;2.10;1.53;;;8.80;99.90;;;;;;4992122;28;20564;-69
2024/02/14 08:18:58;;;;;;;2.13;1.97;;;8.80;99.90;;;;;;4992485;28;20168;-70
2024/02/14 08:21:27;;;;;;;2.97;2.07;;;8.80;99.90;;;;;;4994300;28;20426;-69
2024/02/14 08:23:54;;;;;;;3.90;1.97;;;8.80;99.90;;;;;;4996265;28;21017;-69
2024/02/14 08:26:24;;;;;;;2.17;1.90;;;8.90;99.90;;;;;;4996210;28;20438;-69
2024/02/14 08:28:50;;;;;;;3.53;2.17;;;9.00;99.90;;;;;;4994631;28;20430;-69
2024/02/14 08:31:15;;;;;;;3.50;2.07;;;9.10;99.90;;;;;;4996264;28;20448;-70
2024/02/14 08:33:41;;;;;;;3.10;1.73;;;9.20;99.90;;;;;;4996321;28;20641;-69
2024/02/14 08:36:07;;;;;;;2.90;1.73;;;9.30;99.90;;;;;;4995917;28;20597;-69
2024/02/14 08:38:34;;;;;;;4.07;2.30;;;9.30;99.90;;;;;;4995901;28;20533;-69
2024/02/14 08:41:00;;;;;;;2.87;1.97;;;9.40;99.90;;;;;;4996068;28;20940;-69
2024/02/14 08:43:28;;;;;;;3.67;3.20;;;9.60;99.90;;;;;;4984002;28;20551;-69
2024/02/14 08:45:54;;;;;;;4.10;2.73;;;9.80;99.90;;;;;;4976523;28;20458;-70
2024/02/14 08:48:19;;;;;;;3.97;2.43;;;9.90;99.90;;;;;;4976503;28;20455;-69
2024/02/14 08:50:45;;;;;;;2.17;1.97;;;9.90;99.90;;;;;;4976380;28;20450;-69
2024/02/14 08:53:13;;;;;;;2.37;2.13;;;10.00;99.90;;;;;;4976466;28;20168;-69
2024/02/14 08:55:42;;;;;;;3.60;2.00;;;10.00;99.90;;;;;;4976350;28;20424;-70
2024/02/14 08:58:09;;;;;;;2.27;1.93;;;10.00;99.90;;;;;;4978594;28;20447;-70
2024/02/14 09:00:35;;;;;;;1.73;1.63;;;10.00;99.90;;;;;;4995775;28;20450;-69
2024/02/14 09:03:02;;;;;;;3.93;2.10;;;10.00;99.90;;;;;;4995645;28;20477;-69
2024/02/14 09:05:28;;;;;;;2.73;1.80;;;10.10;99.90;;;;;;4995484;28;20505;-69
2024/02/14 09:07:54;;;;;;;4.23;3.20;;;10.20;99.90;;;;;;4995343;28;20453;-70
2024/02/14 09:10:20;;;;;;;2.60;2.40;;;10.20;99.90;;;;;;4995592;28;20541;-69
2024/02/14 09:12:46;;;;;;;2.43;1.73;;;10.20;99.90;;;;;;4965189;28;20227;-69
2024/02/14 09:15:11;;;;;;;3.90;2.00;;;10.20;99.90;;;;;;4975972;28;20813;-69
2024/02/14 09:17:38;;;;;;;3.50;2.60;;;10.20;99.90;;;;;;4975643;28;20192;-69
2024/02/14 09:20:06;;;;;;;1.97;1.60;;;10.20;99.90;;;;;;4975894;28;20176;-69
2024/02/14 09:22:33;;;;;;;3.70;2.00;;;10.30;99.90;;;;;;4975860;28;20991;-69
2024/02/14 09:24:58;;;;;;;5.00;1.90;;;10.50;99.90;;;;;;4975803;28;20459;-69
2024/02/14 09:27:24;;;;;;;2.33;1.53;;;10.50;99.90;;;;;;4977708;28;21006;-69
2024/02/14 09:29:49;;;;;;;2.27;2.03;;;10.50;99.90;;;;;;4975675;28;20187;-69
2024/02/14 09:32:15;;;;;;;4.50;1.93;;;10.50;99.90;;;;;;4974973;28;20178;-69
2024/02/14 09:34:40;;;;;;;2.90;2.43;;;10.40;99.90;;;;;;4975565;28;20204;-69
2024/02/14 09:37:06;;;;;;;2.20;1.73;;;10.40;99.90;;;;;;4975308;28;20211;-69
2024/02/14 09:39:33;;;;;;;2.73;2.27;;;10.60;99.90;;;;;;4975685;28;20167;-69
2024/02/14 09:41:59;;;;;;;3.90;1.70;;;10.80;99.90;;;;;;4976653;28;20204;-69
2024/02/14 09:44:28;;;;;;;2.90;2.17;;;10.90;99.90;;;;;;4975460;28;20467;-69
2024/02/14 09:46:55;;;;;;;4.20;2.60;;;11.00;99.90;;;;;;4975095;28;20449;-69
2024/02/14 09:49:21;;;;;;;3.40;1.83;;;11.10;99.90;;;;;;4975410;28;20439;-69
2024/02/14 09:51:49;;;;;;;7.27;2.00;;;11.20;99.90;;;;;;4975372;28;20428;-69
2024/02/14 09:54:16;;;;;;;2.33;1.70;;;11.40;99.90;;;;;;4976439;28;20475;-69
2024/02/14 09:56:43;;;;;;;2.03;1.93;;;11.80;99.90;;;;;;4974933;28;20506;-69
2024/02/14 09:59:09;;;;;;;5.00;2.20;;;12.10;99.90;;;;;;4975384;28;20424;-69
2024/02/14 10:01:35;;;;;;;1.80;1.70;;;12.30;99.90;;;;;;4975131;28;20428;-69
2024/02/14 10:04:02;;;;;;;1.80;1.70;;;12.40;99.90;;;;;;4975062;28;20979;-70
2024/02/14 10:06:28;;;;;;;1.60;1.50;;;12.70;99.90;;;;;;4974742;28;20436;-69
2024/02/14 10:08:55;;;;;;;3.57;2.33;;;13.30;99.90;;;;;;4975174;28;20434;-69
2024/02/14 10:11:23;;;;;;;3.23;1.87;;;13.90;99.90;;;;;;4982698;28;20747;-69
2024/02/14 10:13:50;;;;;;;3.10;1.87;;;13.80;99.90;;;;;;4994335;28;20473;-69
2024/02/14 10:16:15;;;;;;;2.10;1.90;;;13.60;99.90;;;;;;4994115;28;20486;-69
2024/02/14 10:18:41;;;;;;;1.77;1.67;;;13.90;99.90;;;;;;4994160;28;20485;-69
2024/02/14 10:21:14;;;;;;;3.50;2.20;;;13.80;99.90;;;;;;4994367;28;20203;-69
2024/02/14 10:23:39;;;;;;;3.13;2.40;;;13.70;99.90;;;;;;4992737;28;20278;-69
2024/02/14 10:26:05;;;;;;;3.10;2.30;;;13.60;99.90;;;;;;4994107;28;20489;-69
2024/02/14 10:28:32;;;;;;;2.57;1.77;;;13.70;99.90;;;;;;4993862;28;20551;-69
2024/02/14 10:30:59;;;;;;;4.10;1.20;;;14.90;99.90;;;;;;4994009;28;20179;-69
2024/02/14 10:33:29;;;;;;;2.30;1.87;;;16.10;99.90;;;;;;4994082;28;20474;-70
2024/02/14 10:35:56;;;;;;;2.03;1.93;;;17.70;99.90;;;;;;4993982;28;20442;-69
2024/02/14 10:38:23;;;;;;;1.80;1.70;;;18.40;99.90;;;;;;4991270;28;20485;-70
2024/02/14 10:40:51;;;;;;;2.17;1.73;;;17.90;99.90;;;;;;4974435;28;20420;-69
2024/02/14 10:43:16;;;;;;;1.73;1.47;;;17.20;99.90;;;;;;4974148;28;20775;-70
2024/02/14 10:45:43;;;;;;;2.93;2.00;;;16.40;99.90;;;;;;4974309;28;20416;-69
2024/02/14 10:48:12;;;;;;;2.60;2.00;;;15.70;99.90;;;;;;4974054;28;20697;-69
2024/02/14 10:50:41;;;;;;;2.90;1.90;;;15.20;99.90;;;;;;4974278;28;20439;-69
2024/02/14 10:53:17;;;;;;;2.17;2.07;;;15.60;99.90;;;;;;4977221;28;20431;-69
2024/02/14 10:55:48;;;;;;;1.77;1.67;;;16.60;99.90;;;;;;4988789;28;20423;-69
2024/02/14 10:58:16;;;;;;;2.77;1.87;;;16.10;99.90;;;;;;4993234;28;20425;-69
2024/02/14 11:00:43;;;;;;;3.20;1.90;;;16.40;99.90;;;;;;4993470;28;20434;-69
2024/02/14 11:03:10;;;;;;;1.50;1.40;;;17.00;99.90;;;;;;4993461;28;20522;-69
2024/02/14 11:05:46;;;;;;;2.10;1.40;;;17.40;99.90;;;;;;4976302;28;20434;-69
2024/02/14 11:08:25;;;;;;;1.47;1.37;;;17.20;99.90;;;;;;4974808;28;20427;-69
2024/02/14 11:10:59;;;;;;;2.87;1.40;;;16.60;99.90;;;;;;4973919;28;20415;-70
2024/02/14 11:13:31;;;;;;;2.47;1.80;;;15.40;99.90;;;;;;4973847;28;20512;-69
2024/02/14 11:16:01;;;;;;;2.53;2.33;;;15.00;99.90;;;;;;4973796;28;20440;-69
2024/02/14 11:18:35;;;;;;;1.93;1.50;;;14.40;99.90;;;;;;4982164;28;20431;-69
2024/02/14 11:21:04;;;;;;;3.43;1.57;;;14.00;99.90;;;;;;4993194;28;20772;-69
2024/02/14 11:23:31;;;;;;;1.60;1.50;;;13.80;99.90;;;;;;4991524;28;20505;-69
2024/02/14 11:26:15;;;;;;;1.43;1.33;;;13.60;99.90;;;;;;4993018;28;20438;-69
2024/02/14 11:28:42;;;;;;;1.63;1.53;;;13.20;99.90;;;;;;4992983;28;20494;-69
2024/02/14 11:31:09;;;;;;;1.93;1.20;;;13.00;99.90;;;;;;4992973;28;20430;-69
2024/02/14 11:33:35;;;;;;;1.60;1.50;;;12.90;99.90;;;;;;4993003;28;20427;-69
2024/02/14 11:36:10;;;;;;;1.70;1.60;;;13.00;99.90;;;;;;4976252;28;20459;-69
2024/02/14 11:38:35;;;;;;;1.60;1.50;;;13.10;99.90;;;;;;4974493;28;20185;-69
2024/02/14 11:41:03;;;;;;;1.47;1.30;;;13.20;99.90;;;;;;4973457;28;20643;-69
2024/02/14 11:43:29;;;;;;;2.30;1.70;;;13.20;99.90;;;;;;4973379;28;20262;-69
2024/02/14 11:45:55;;;;;;;2.37;1.40;;;13.30;99.90;;;;;;4973333;28;20944;-69
2024/02/14 11:48:21;;;;;;;1.93;1.17;;;13.40;99.90;;;;;;4955811;28;20180;-69
2024/02/14 11:50:47;;;;;;;1.30;1.20;;;13.40;99.90;;;;;;4974366;28;20180;-69
2024/02/14 11:53:16;;;;;;;1.50;1.40;;;13.40;99.90;;;;;;4974645;28;20438;-69
2024/02/14 11:55:42;;;;;;;1.30;1.20;;;13.50;99.90;;;;;;4972789;28;20574;-69
2024/02/14 11:58:11;;;;;;;1.43;1.20;;;13.80;99.90;;;;;;4973096;28;20976;-69
2024/02/14 12:00:40;;;;;;;1.90;1.70;;;13.90;99.90;;;;;;4973319;28;20172;-69
2024/02/14 12:03:07;;;;;;;1.40;1.30;;;13.90;99.90;;;;;;4973269;28;20440;-69
2024/02/14 12:05:34;;;;;;;2.10;1.93;;;14.30;99.90;;;;;;4973091;28;20426;-69
2024/02/14 12:08:00;;;;;;;1.57;1.47;;;15.00;99.90;;;;;;4956775;28;20506;-69
2024/02/14 12:10:26;;;;;;;3.43;2.20;;;15.70;99.90;;;;;;4975139;28;20782;-69
2024/02/14 12:12:52;;;;;;;1.83;1.53;;;15.90;99.90;;;;;;4992533;28;20406;-69
2024/02/14 12:15:17;;;;;;;2.20;2.00;;;15.50;99.90;;;;;;4992893;28;20458;-69
2024/02/14 12:17:47;;;;;;;1.70;1.30;;;15.50;99.90;;;;;;4992195;28;20191;-69
2024/02/14 12:20:13;;;;;;;1.40;1.30;;;17.70;99.90;;;;;;4992618;28;20751;-69
2024/02/14 12:22:40;;;;;;;1.33;1.23;;;20.70;99.90;;;;;;4990182;28;20427;-69
2024/02/14 12:25:07;;;;;;;1.20;1.10;;;21.60;94.20;;;;;;4972877;28;20554;-69
2024/02/14 12:27:34;;;;;;;1.00;1.00;;;21.40;91.90;;;;;;4972599;28;20439;-69
2024/02/14 12:30:02;;;;;;;1.73;1.63;;;20.70;92.60;;;;;;4972956;28;20430;-69
2024/02/14 12:32:28;;;;;;;1.10;1.10;;;19.60;95.10;;;;;;4972994;28;20427;-69
2024/02/14 12:34:57;;;;;;;1.63;1.50;;;18.50;99.00;;;;;;4973184;28;20419;-69
2024/02/14 12:37:22;;;;;;;2.30;1.03;;;17.10;99.90;;;;;;4979869;28;20295;-69
2024/02/14 12:39:48;;;;;;;1.30;1.20;;;17.00;99.90;;;;;;4992230;28;20875;-69
2024/02/14 12:42:14;;;;;;;1.60;1.50;;;17.30;99.90;;;;;;4990773;28;20252;-69
2024/02/14 12:44:40;;;;;;;1.33;1.27;;;17.70;99.90;;;;;;4986747;28;20208;-69
2024/02/14 12:47:06;;;;;;;4.13;1.80;;;20.00;99.90;;;;;;4972492;28;20188;-69
2024/02/14 12:49:31;;;;;;;1.37;1.27;;;23.30;87.30;;;;;;4972778;28;20635;-69